sensor_id;sensor_type;location;lat;lon;timestamp;pressure;altitude;pressure_sealevel;temperature;humidity
33151;BME280;19508;42.578;23.416;2022-12-08T00:01:12;93467.38;;;4.88;86.10
33151;BME280;19508;42.578;23.416;2022-12-08T00:03:38;93471.91;;;4.99;86.67
33151;BME280;19508;42.578;23.416;2022-12-08T00:06:05;93463.50;;;5.14;86.13
33151;BME280;19508;42.578;23.416;2022-12-08T00:08:50;93481.53;;;5.30;85.71
33151;BME280;19508;42.578;23.416;2022-12-08T00:11:34;93482.09;;;5.32;85.60
33151;BME280;19508;42.578;23.416;2022-12-08T00:14:00;93477.09;;;5.24;85.16
33151;BME280;19508;42.578;23.416;2022-12-08T00:16:25;93502.41;;;5.33;84.91
33151;BME280;19508;42.578;23.416;2022-12-08T00:18:51;93514.38;;;5.43;83.91
33151;BME280;19508;42.578;23.416;2022-12-08T00:21:16;93527.06;;;5.59;83.05
33151;BME280;19508;42.578;23.416;2022-12-08T00:23:42;93529.50;;;5.49;82.31
33151;BME280;19508;42.578;23.416;2022-12-08T00:26:08;93520.69;;;5.18;82.97
33151;BME280;19508;42.578;23.416;2022-12-08T00:28:33;93527.03;;;4.75;84.94
33151;BME280;19508;42.578;23.416;2022-12-08T00:31:06;93545.25;;;4.78;85.01
33151;BME280;19508;42.578;23.416;2022-12-08T00:33:31;93541.75;;;4.78;84.01
33151;BME280;19508;42.578;23.416;2022-12-08T00:35:57;93533.56;;;4.79;83.72
33151;BME280;19508;42.578;23.416;2022-12-08T00:38:22;93540.38;;;4.57;84.41
33151;BME280;19508;42.578;23.416;2022-12-08T00:40:47;93543.50;;;4.72;83.68
33151;BME280;19508;42.578;23.416;2022-12-08T00:43:13;93537.06;;;4.62;83.52
33151;BME280;19508;42.578;23.416;2022-12-08T00:45:39;93548.09;;;4.65;83.67
33151;BME280;19508;42.578;23.416;2022-12-08T00:48:05;93560.22;;;4.61;83.74
33151;BME280;19508;42.578;23.416;2022-12-08T00:50:31;93556.56;;;4.62;83.50
33151;BME280;19508;42.578;23.416;2022-12-08T00:52:56;93552.22;;;4.61;83.12
33151;BME280;19508;42.578;23.416;2022-12-08T00:55:21;93572.09;;;4.47;83.44
33151;BME280;19508;42.578;23.416;2022-12-08T00:57:47;93566.75;;;4.65;82.84
33151;BME280;19508;42.578;23.416;2022-12-08T01:00:12;93568.56;;;4.53;82.78
33151;BME280;19508;42.578;23.416;2022-12-08T01:02:39;93557.63;;;4.18;83.06
33151;BME280;19508;42.578;23.416;2022-12-08T01:05:05;93562.09;;;4.24;83.17
33151;BME280;19508;42.578;23.416;2022-12-08T01:07:30;93558.06;;;4.15;83.17
33151;BME280;19508;42.578;23.416;2022-12-08T01:09:56;93549.59;;;4.00;84.00
33151;BME280;19508;42.578;23.416;2022-12-08T01:12:22;93550.41;;;4.00;84.13
33151;BME280;19508;42.578;23.416;2022-12-08T01:14:48;93543.06;;;4.02;83.79
33151;BME280;19508;42.578;23.416;2022-12-08T01:17:13;93549.56;;;4.24;83.00
33151;BME280;19508;42.578;23.416;2022-12-08T01:19:39;93553.44;;;4.29;82.66
33151;BME280;19508;42.578;23.416;2022-12-08T01:22:04;93555.94;;;4.23;82.89
33151;BME280;19508;42.578;23.416;2022-12-08T01:24:29;93549.84;;;4.16;82.86
33151;BME280;19508;42.578;23.416;2022-12-08T01:26:55;93551.34;;;4.12;83.56
33151;BME280;19508;42.578;23.416;2022-12-08T01:29:21;93555.06;;;4.11;83.77
33151;BME280;19508;42.578;23.416;2022-12-08T01:31:46;93553.72;;;4.20;84.15
33151;BME280;19508;42.578;23.416;2022-12-08T01:34:12;93549.78;;;4.23;84.65
33151;BME280;19508;42.578;23.416;2022-12-08T01:36:37;93563.94;;;4.42;85.47
33151;BME280;19508;42.578;23.416;2022-12-08T01:39:05;93554.47;;;4.46;86.23
33151;BME280;19508;42.578;23.416;2022-12-08T01:41:33;93537.72;;;4.57;86.01
33151;BME280;19508;42.578;23.416;2022-12-08T01:46:26;93540.91;;;4.66;87.68
33151;BME280;19508;42.578;23.416;2022-12-08T01:49:02;93536.22;;;4.61;87.71
33151;BME280;19508;42.578;23.416;2022-12-08T01:51:32;93534.91;;;4.52;87.25
33151;BME280;19508;42.578;23.416;2022-12-08T01:53:59;93528.97;;;4.50;87.25
33151;BME280;19508;42.578;23.416;2022-12-08T01:56:36;93531.34;;;4.58;87.18
33151;BME280;19508;42.578;23.416;2022-12-08T01:59:05;93531.41;;;4.70;86.37
33151;BME280;19508;42.578;23.416;2022-12-08T02:01:30;93526.22;;;4.75;86.38
33151;BME280;19508;42.578;23.416;2022-12-08T02:04:01;93520.97;;;4.68;85.81
33151;BME280;19508;42.578;23.416;2022-12-08T02:06:30;93516.09;;;4.65;85.68
33151;BME280;19508;42.578;23.416;2022-12-08T02:08:59;93502.25;;;4.57;86.16
33151;BME280;19508;42.578;23.416;2022-12-08T02:11:25;93499.91;;;4.78;85.86
33151;BME280;19508;42.578;23.416;2022-12-08T02:13:51;93501.25;;;4.69;85.13
33151;BME280;19508;42.578;23.416;2022-12-08T02:24:36;93508.41;;;4.57;84.64
33151;BME280;19508;42.578;23.416;2022-12-08T02:27:19;93500.53;;;4.44;84.34
33151;BME280;19508;42.578;23.416;2022-12-08T02:39:16;93501.22;;;4.39;86.72
33151;BME280;19508;42.578;23.416;2022-12-08T02:41:58;93497.88;;;4.44;86.78
33151;BME280;19508;42.578;23.416;2022-12-08T02:44:32;93497.56;;;4.52;87.01
33151;BME280;19508;42.578;23.416;2022-12-08T02:47:05;93513.28;;;4.60;86.77
33151;BME280;19508;42.578;23.416;2022-12-08T02:49:33;93511.56;;;4.66;86.59
33151;BME280;19508;42.578;23.416;2022-12-08T02:54:38;93495.66;;;4.89;85.91
33151;BME280;19508;42.578;23.416;2022-12-08T03:07:48;93495.38;;;4.31;86.27
33151;BME280;19508;42.578;23.416;2022-12-08T03:10:46;93495.16;;;4.32;86.92
33151;BME280;19508;42.578;23.416;2022-12-08T03:13:16;93504.72;;;4.40;86.53
33151;BME280;19508;42.578;23.416;2022-12-08T03:15:47;93502.34;;;4.32;86.22
33151;BME280;19508;42.578;23.416;2022-12-08T03:18:15;93499.53;;;4.45;85.64
33151;BME280;19508;42.578;23.416;2022-12-08T03:20:42;93502.91;;;4.52;85.09
33151;BME280;19508;42.578;23.416;2022-12-08T03:23:10;93496.69;;;4.58;85.12
33151;BME280;19508;42.578;23.416;2022-12-08T03:25:42;93486.72;;;4.53;84.22
33151;BME280;19508;42.578;23.416;2022-12-08T03:28:08;93492.03;;;4.53;83.94
33151;BME280;19508;42.578;23.416;2022-12-08T03:30:38;93496.19;;;4.49;84.25
33151;BME280;19508;42.578;23.416;2022-12-08T03:33:09;93488.72;;;4.40;84.74
33151;BME280;19508;42.578;23.416;2022-12-08T03:35:38;93494.81;;;4.29;84.50
33151;BME280;19508;42.578;23.416;2022-12-08T03:38:08;93501.31;;;4.33;84.31
33151;BME280;19508;42.578;23.416;2022-12-08T03:40:35;93500.56;;;4.25;84.22
33151;BME280;19508;42.578;23.416;2022-12-08T03:43:00;93499.69;;;4.32;84.19
33151;BME280;19508;42.578;23.416;2022-12-08T03:45:26;93499.69;;;4.13;84.97
33151;BME280;19508;42.578;23.416;2022-12-08T03:47:51;93501.00;;;4.22;85.16
33151;BME280;19508;42.578;23.416;2022-12-08T03:50:17;93498.81;;;4.19;85.58
33151;BME280;19508;42.578;23.416;2022-12-08T03:52:42;93503.84;;;4.28;85.36
33151;BME280;19508;42.578;23.416;2022-12-08T03:55:08;93492.94;;;4.29;85.37
33151;BME280;19508;42.578;23.416;2022-12-08T03:57:33;93501.44;;;4.01;86.12
33151;BME280;19508;42.578;23.416;2022-12-08T03:59:59;93493.31;;;4.14;86.27
33151;BME280;19508;42.578;23.416;2022-12-08T04:02:24;93505.88;;;4.44;85.57
33151;BME280;19508;42.578;23.416;2022-12-08T04:04:50;93511.16;;;4.32;86.28
33151;BME280;19508;42.578;23.416;2022-12-08T04:07:15;93502.41;;;4.43;85.99
33151;BME280;19508;42.578;23.416;2022-12-08T04:09:40;93502.19;;;4.45;86.08
33151;BME280;19508;42.578;23.416;2022-12-08T04:12:09;93499.97;;;4.42;86.55
33151;BME280;19508;42.578;23.416;2022-12-08T04:14:34;93503.22;;;4.62;86.13
33151;BME280;19508;42.578;23.416;2022-12-08T04:17:00;93505.88;;;4.62;86.11
33151;BME280;19508;42.578;23.416;2022-12-08T04:19:25;93497.09;;;4.73;86.29
33151;BME280;19508;42.578;23.416;2022-12-08T04:21:51;93519.03;;;4.75;86.50
33151;BME280;19508;42.578;23.416;2022-12-08T04:24:17;93509.09;;;4.82;87.15
33151;BME280;19508;42.578;23.416;2022-12-08T04:26:42;93525.06;;;5.01;86.98
33151;BME280;19508;42.578;23.416;2022-12-08T04:29:08;93513.03;;;5.10;86.92
33151;BME280;19508;42.578;23.416;2022-12-08T04:31:33;93506.13;;;4.91;87.59
33151;BME280;19508;42.578;23.416;2022-12-08T04:33:59;93520.84;;;5.23;86.80
33151;BME280;19508;42.578;23.416;2022-12-08T04:36:24;93514.72;;;5.34;86.50
33151;BME280;19508;42.578;23.416;2022-12-08T04:38:49;93513.81;;;5.41;85.96
33151;BME280;19508;42.578;23.416;2022-12-08T04:41:15;93509.84;;;5.31;86.03
33151;BME280;19508;42.578;23.416;2022-12-08T04:43:40;93513.91;;;5.46;85.90
33151;BME280;19508;42.578;23.416;2022-12-08T04:46:08;93500.78;;;5.32;85.63
33151;BME280;19508;42.578;23.416;2022-12-08T04:48:36;93505.91;;;5.46;86.38
33151;BME280;19508;42.578;23.416;2022-12-08T04:51:01;93507.53;;;5.47;85.56
33151;BME280;19508;42.578;23.416;2022-12-08T04:53:27;93509.53;;;5.51;85.46
33151;BME280;19508;42.578;23.416;2022-12-08T04:55:52;93516.06;;;5.67;85.25
33151;BME280;19508;42.578;23.416;2022-12-08T04:58:19;93519.88;;;5.71;85.05
33151;BME280;19508;42.578;23.416;2022-12-08T05:00:45;93516.53;;;5.64;84.22
33151;BME280;19508;42.578;23.416;2022-12-08T05:03:11;93517.44;;;5.58;84.60
33151;BME280;19508;42.578;23.416;2022-12-08T05:05:36;93517.53;;;5.63;84.53
33151;BME280;19508;42.578;23.416;2022-12-08T05:08:02;93531.84;;;5.80;84.25
33151;BME280;19508;42.578;23.416;2022-12-08T05:10:27;93525.44;;;5.58;84.23
33151;BME280;19508;42.578;23.416;2022-12-08T05:12:53;93529.59;;;5.54;84.50
33151;BME280;19508;42.578;23.416;2022-12-08T05:15:18;93526.84;;;5.72;84.00
33151;BME280;19508;42.578;23.416;2022-12-08T05:17:44;93535.22;;;5.87;83.05
33151;BME280;19508;42.578;23.416;2022-12-08T05:20:10;93548.00;;;5.74;83.33
33151;BME280;19508;42.578;23.416;2022-12-08T05:22:35;93533.59;;;5.86;82.88
33151;BME280;19508;42.578;23.416;2022-12-08T05:25:01;93536.63;;;5.78;82.88
33151;BME280;19508;42.578;23.416;2022-12-08T05:27:26;93539.69;;;5.93;82.64
33151;BME280;19508;42.578;23.416;2022-12-08T05:29:52;93535.50;;;5.98;82.33
33151;BME280;19508;42.578;23.416;2022-12-08T05:32:17;93545.00;;;5.82;82.08
33151;BME280;19508;42.578;23.416;2022-12-08T05:34:43;93547.78;;;5.75;82.11
33151;BME280;19508;42.578;23.416;2022-12-08T05:37:08;93543.16;;;5.82;82.01
33151;BME280;19508;42.578;23.416;2022-12-08T05:39:34;93550.06;;;5.60;82.68
33151;BME280;19508;42.578;23.416;2022-12-08T05:41:59;93552.84;;;5.53;83.07
33151;BME280;19508;42.578;23.416;2022-12-08T05:44:25;93552.00;;;5.94;82.13
33151;BME280;19508;42.578;23.416;2022-12-08T05:46:51;93552.56;;;5.97;81.57
33151;BME280;19508;42.578;23.416;2022-12-08T05:49:17;93551.91;;;6.01;81.29
33151;BME280;19508;42.578;23.416;2022-12-08T05:51:42;93549.91;;;6.20;80.68
33151;BME280;19508;42.578;23.416;2022-12-08T05:54:07;93554.22;;;6.21;80.70
33151;BME280;19508;42.578;23.416;2022-12-08T05:56:33;93550.94;;;6.31;80.51
33151;BME280;19508;42.578;23.416;2022-12-08T05:58:59;93546.09;;;6.16;79.67
33151;BME280;19508;42.578;23.416;2022-12-08T06:01:29;93549.44;;;6.23;80.03
33151;BME280;19508;42.578;23.416;2022-12-08T06:03:56;93547.38;;;6.02;80.70
33151;BME280;19508;42.578;23.416;2022-12-08T06:06:23;93551.66;;;6.03;80.68
33151;BME280;19508;42.578;23.416;2022-12-08T06:08:49;93549.47;;;6.00;80.81
33151;BME280;19508;42.578;23.416;2022-12-08T06:13:48;93537.34;;;5.97;80.46
33151;BME280;19508;42.578;23.416;2022-12-08T06:16:13;93535.88;;;6.25;80.26
33151;BME280;19508;42.578;23.416;2022-12-08T06:18:39;93541.53;;;6.28;79.98
33151;BME280;19508;42.578;23.416;2022-12-08T06:21:09;93557.81;;;6.38;80.10
33151;BME280;19508;42.578;23.416;2022-12-08T06:23:35;93552.81;;;6.54;79.83
33151;BME280;19508;42.578;23.416;2022-12-08T06:26:07;93568.56;;;6.78;79.54
33151;BME280;19508;42.578;23.416;2022-12-08T06:28:33;93570.66;;;6.88;78.86
33151;BME280;19508;42.578;23.416;2022-12-08T06:31:12;93565.59;;;7.03;78.24
33151;BME280;19508;42.578;23.416;2022-12-08T06:33:38;93560.44;;;7.14;77.85
33151;BME280;19508;42.578;23.416;2022-12-08T06:36:04;93564.94;;;7.25;77.48
33151;BME280;19508;42.578;23.416;2022-12-08T06:38:30;93566.66;;;7.31;77.21
33151;BME280;19508;42.578;23.416;2022-12-08T06:40:57;93572.78;;;7.43;76.45
33151;BME280;19508;42.578;23.416;2022-12-08T06:43:23;93582.47;;;7.44;76.94
33151;BME280;19508;42.578;23.416;2022-12-08T06:45:49;93570.47;;;7.63;76.65
33151;BME280;19508;42.578;23.416;2022-12-08T06:48:15;93568.16;;;7.39;76.19
33151;BME280;19508;42.578;23.416;2022-12-08T06:50:40;93573.41;;;7.62;75.86
33151;BME280;19508;42.578;23.416;2022-12-08T06:53:05;93558.81;;;7.41;75.96
33151;BME280;19508;42.578;23.416;2022-12-08T06:55:31;93560.03;;;7.50;75.75
33151;BME280;19508;42.578;23.416;2022-12-08T06:57:57;93556.31;;;7.51;75.63
33151;BME280;19508;42.578;23.416;2022-12-08T07:00:22;93548.97;;;7.30;75.98
33151;BME280;19508;42.578;23.416;2022-12-08T07:02:48;93557.78;;;7.59;75.78
33151;BME280;19508;42.578;23.416;2022-12-08T07:05:13;93563.66;;;7.73;74.79
33151;BME280;19508;42.578;23.416;2022-12-08T07:07:39;93569.84;;;7.90;74.18
33151;BME280;19508;42.578;23.416;2022-12-08T07:10:06;93567.25;;;7.78;74.47
33151;BME280;19508;42.578;23.416;2022-12-08T07:12:31;93550.44;;;7.83;74.11
33151;BME280;19508;42.578;23.416;2022-12-08T07:14:56;93564.00;;;7.93;74.02
33151;BME280;19508;42.578;23.416;2022-12-08T07:17:23;93557.66;;;8.16;73.78
33151;BME280;19508;42.578;23.416;2022-12-08T07:19:48;93559.19;;;8.29;73.69
33151;BME280;19508;42.578;23.416;2022-12-08T07:22:14;93550.03;;;8.25;72.57
33151;BME280;19508;42.578;23.416;2022-12-08T07:24:39;93565.31;;;8.07;73.29
33151;BME280;19508;42.578;23.416;2022-12-08T07:27:04;93570.66;;;8.07;73.00
33151;BME280;19508;42.578;23.416;2022-12-08T07:29:30;93565.00;;;8.20;73.09
33151;BME280;19508;42.578;23.416;2022-12-08T07:31:55;93572.28;;;8.08;72.89
33151;BME280;19508;42.578;23.416;2022-12-08T07:34:21;93578.16;;;8.22;73.45
33151;BME280;19508;42.578;23.416;2022-12-08T07:36:46;93586.22;;;8.39;72.52
33151;BME280;19508;42.578;23.416;2022-12-08T07:39:11;93585.53;;;8.32;72.83
33151;BME280;19508;42.578;23.416;2022-12-08T07:41:37;93593.75;;;8.42;72.90
33151;BME280;19508;42.578;23.416;2022-12-08T07:44:02;93594.56;;;8.26;73.06
33151;BME280;19508;42.578;23.416;2022-12-08T07:46:28;93607.28;;;7.85;72.96
33151;BME280;19508;42.578;23.416;2022-12-08T07:48:54;93589.91;;;7.71;74.01
33151;BME280;19508;42.578;23.416;2022-12-08T07:51:21;93595.66;;;7.62;73.26
33151;BME280;19508;42.578;23.416;2022-12-08T07:53:48;93602.28;;;7.60;73.90
33151;BME280;19508;42.578;23.416;2022-12-08T07:56:13;93601.22;;;7.44;74.39
33151;BME280;19508;42.578;23.416;2022-12-08T07:58:39;93592.59;;;7.71;73.80
33151;BME280;19508;42.578;23.416;2022-12-08T08:01:21;93596.41;;;7.46;74.74
33151;BME280;19508;42.578;23.416;2022-12-08T08:03:47;93582.91;;;7.41;74.67
33151;BME280;19508;42.578;23.416;2022-12-08T08:06:12;93602.94;;;7.67;75.10
33151;BME280;19508;42.578;23.416;2022-12-08T08:08:38;93617.31;;;8.06;74.38
33151;BME280;19508;42.578;23.416;2022-12-08T08:11:07;93601.63;;;8.32;72.75
33151;BME280;19508;42.578;23.416;2022-12-08T08:13:32;93612.94;;;8.34;72.02
33151;BME280;19508;42.578;23.416;2022-12-08T08:16:05;93608.50;;;7.94;73.18
33151;BME280;19508;42.578;23.416;2022-12-08T08:18:32;93604.66;;;8.35;72.67
33151;BME280;19508;42.578;23.416;2022-12-08T08:20:57;93613.63;;;8.80;70.50
33151;BME280;19508;42.578;23.416;2022-12-08T08:23:23;93618.38;;;8.72;70.44
33151;BME280;19508;42.578;23.416;2022-12-08T08:25:48;93610.81;;;9.08;69.42
33151;BME280;19508;42.578;23.416;2022-12-08T08:28:14;93610.25;;;9.06;69.60
33151;BME280;19508;42.578;23.416;2022-12-08T08:30:40;93614.66;;;8.95;69.81
33151;BME280;19508;42.578;23.416;2022-12-08T08:33:05;93613.63;;;9.18;69.55
33151;BME280;19508;42.578;23.416;2022-12-08T08:35:32;93610.72;;;9.03;69.69
33151;BME280;19508;42.578;23.416;2022-12-08T08:37:58;93610.34;;;9.38;68.67
33151;BME280;19508;42.578;23.416;2022-12-08T08:40:23;93603.34;;;9.59;67.71
33151;BME280;19508;42.578;23.416;2022-12-08T08:42:49;93610.56;;;9.80;66.92
33151;BME280;19508;42.578;23.416;2022-12-08T08:45:14;93606.94;;;9.97;66.59
33151;BME280;19508;42.578;23.416;2022-12-08T08:47:39;93590.44;;;9.34;68.59
33151;BME280;19508;42.578;23.416;2022-12-08T08:50:05;93598.06;;;9.42;68.48
33151;BME280;19508;42.578;23.416;2022-12-08T08:52:31;93587.66;;;10.05;65.38
33151;BME280;19508;42.578;23.416;2022-12-08T08:54:56;93596.03;;;9.81;66.43
33151;BME280;19508;42.578;23.416;2022-12-08T08:57:22;93591.38;;;9.72;67.40
33151;BME280;19508;42.578;23.416;2022-12-08T08:59:47;93589.13;;;9.90;65.86
33151;BME280;19508;42.578;23.416;2022-12-08T09:02:18;93599.88;;;9.90;66.28
33151;BME280;19508;42.578;23.416;2022-12-08T09:04:43;93580.09;;;10.02;67.17
33151;BME280;19508;42.578;23.416;2022-12-08T09:07:09;93589.22;;;10.60;64.33
33151;BME280;19508;42.578;23.416;2022-12-08T09:09:36;93587.31;;;11.02;63.11
33151;BME280;19508;42.578;23.416;2022-12-08T09:12:01;93586.69;;;10.90;63.35
33151;BME280;19508;42.578;23.416;2022-12-08T09:14:27;93574.06;;;11.64;62.33
33151;BME280;19508;42.578;23.416;2022-12-08T09:16:52;93566.84;;;11.79;59.54
33151;BME280;19508;42.578;23.416;2022-12-08T09:19:18;93572.44;;;11.68;60.08
33151;BME280;19508;42.578;23.416;2022-12-08T09:21:43;93569.63;;;11.27;61.55
33151;BME280;19508;42.578;23.416;2022-12-08T09:24:09;93573.28;;;11.73;60.58
33151;BME280;19508;42.578;23.416;2022-12-08T09:26:40;93563.91;;;11.91;60.73
33151;BME280;19508;42.578;23.416;2022-12-08T09:29:06;93545.28;;;11.90;61.15
33151;BME280;19508;42.578;23.416;2022-12-08T09:31:32;93550.94;;;11.83;61.20
33151;BME280;19508;42.578;23.416;2022-12-08T09:33:58;93546.56;;;11.67;61.74
33151;BME280;19508;42.578;23.416;2022-12-08T09:36:24;93547.66;;;11.76;60.98
33151;BME280;19508;42.578;23.416;2022-12-08T09:38:49;93552.56;;;11.94;59.94
33151;BME280;19508;42.578;23.416;2022-12-08T09:41:36;93549.84;;;12.81;59.06
33151;BME280;19508;42.578;23.416;2022-12-08T09:46:33;93545.66;;;13.34;55.47
33151;BME280;19508;42.578;23.416;2022-12-08T09:48:59;93544.69;;;13.69;56.40
33151;BME280;19508;42.578;23.416;2022-12-08T09:51:30;93543.88;;;13.69;55.88
33151;BME280;19508;42.578;23.416;2022-12-08T09:54:23;93546.16;;;13.41;56.00
33151;BME280;19508;42.578;23.416;2022-12-08T09:56:50;93540.81;;;13.80;54.47
33151;BME280;19508;42.578;23.416;2022-12-08T09:59:29;93539.00;;;14.10;54.29
33151;BME280;19508;42.578;23.416;2022-12-08T10:01:56;93531.50;;;13.97;54.47
33151;BME280;19508;42.578;23.416;2022-12-08T10:07:20;93525.88;;;13.44;55.25
33151;BME280;19508;42.578;23.416;2022-12-08T10:10:24;93525.41;;;13.26;55.51
33151;BME280;19508;42.578;23.416;2022-12-08T10:18:17;93511.41;;;13.04;57.86
33151;BME280;19508;42.578;23.416;2022-12-08T10:20:46;93518.19;;;13.02;58.19
33151;BME280;19508;42.578;23.416;2022-12-08T10:25:44;93511.75;;;12.82;58.31
33151;BME280;19508;42.578;23.416;2022-12-08T10:28:10;93506.59;;;12.81;59.50
33151;BME280;19508;42.578;23.416;2022-12-08T10:30:35;93504.16;;;12.89;59.40
33151;BME280;19508;42.578;23.416;2022-12-08T10:33:01;93506.38;;;13.91;56.94
33151;BME280;19508;42.578;23.416;2022-12-08T10:35:42;93503.16;;;14.57;53.35
33151;BME280;19508;42.578;23.416;2022-12-08T10:38:18;93494.94;;;14.33;54.40
33151;BME280;19508;42.578;23.416;2022-12-08T10:40:46;93493.94;;;14.58;53.07
33151;BME280;19508;42.578;23.416;2022-12-08T10:43:21;93497.34;;;14.69;52.52
33151;BME280;19508;42.578;23.416;2022-12-08T10:45:48;93484.34;;;14.71;53.50
33151;BME280;19508;42.578;23.416;2022-12-08T10:48:18;93483.72;;;14.16;53.81
33151;BME280;19508;42.578;23.416;2022-12-08T10:53:13;93473.78;;;14.35;53.86
33151;BME280;19508;42.578;23.416;2022-12-08T10:58:31;93468.41;;;15.12;51.17
33151;BME280;19508;42.578;23.416;2022-12-08T11:01:05;93465.28;;;15.24;51.19
33151;BME280;19508;42.578;23.416;2022-12-08T11:03:48;93464.28;;;14.96;53.05
33151;BME280;19508;42.578;23.416;2022-12-08T11:06:17;93453.59;;;15.47;50.18
33151;BME280;19508;42.578;23.416;2022-12-08T11:08:52;93454.50;;;15.38;50.26
33151;BME280;19508;42.578;23.416;2022-12-08T11:11:19;93452.03;;;15.22;51.27
33151;BME280;19508;42.578;23.416;2022-12-08T11:13:47;93441.53;;;14.68;52.39
33151;BME280;19508;42.578;23.416;2022-12-08T11:16:15;93454.78;;;14.46;53.14
33151;BME280;19508;42.578;23.416;2022-12-08T11:18:46;93459.03;;;14.23;53.79
33151;BME280;19508;42.578;23.416;2022-12-08T11:21:18;93447.91;;;13.95;54.61
33151;BME280;19508;42.578;23.416;2022-12-08T11:23:48;93456.00;;;13.61;55.98
33151;BME280;19508;42.578;23.416;2022-12-08T11:28:43;93454.88;;;13.67;55.12
33151;BME280;19508;42.578;23.416;2022-12-08T11:31:24;93443.03;;;12.98;56.59
33151;BME280;19508;42.578;23.416;2022-12-08T11:33:51;93440.66;;;12.87;56.51
33151;BME280;19508;42.578;23.416;2022-12-08T11:36:19;93447.56;;;13.18;56.79
33151;BME280;19508;42.578;23.416;2022-12-08T11:38:47;93441.56;;;13.32;56.38
33151;BME280;19508;42.578;23.416;2022-12-08T11:41:18;93437.16;;;13.46;56.51
33151;BME280;19508;42.578;23.416;2022-12-08T11:43:59;93428.63;;;13.23;55.92
33151;BME280;19508;42.578;23.416;2022-12-08T11:46:35;93436.66;;;13.39;56.32
33151;BME280;19508;42.578;23.416;2022-12-08T11:49:08;93442.78;;;13.94;55.89
33151;BME280;19508;42.578;23.416;2022-12-08T11:51:45;93433.53;;;13.61;56.64
33151;BME280;19508;42.578;23.416;2022-12-08T11:57:10;93423.97;;;13.73;55.70
33151;BME280;19508;42.578;23.416;2022-12-08T11:59:42;93414.84;;;13.64;55.09
33151;BME280;19508;42.578;23.416;2022-12-08T12:02:21;93414.03;;;13.64;54.97
33151;BME280;19508;42.578;23.416;2022-12-08T12:04:52;93410.13;;;13.41;55.89
33151;BME280;19508;42.578;23.416;2022-12-08T12:18:00;93420.06;;;12.31;59.85
33151;BME280;19508;42.578;23.416;2022-12-08T12:23:28;93413.84;;;12.31;59.11
33151;BME280;19508;42.578;23.416;2022-12-08T12:26:00;93419.19;;;12.51;59.56
33151;BME280;19508;42.578;23.416;2022-12-08T12:28:51;93415.72;;;13.10;57.55
33151;BME280;19508;42.578;23.416;2022-12-08T12:31:22;93416.06;;;12.88;57.94
33151;BME280;19508;42.578;23.416;2022-12-08T12:33:49;93413.50;;;13.17;57.27
33151;BME280;19508;42.578;23.416;2022-12-08T12:36:16;93420.63;;;13.52;57.00
33151;BME280;19508;42.578;23.416;2022-12-08T12:38:48;93404.31;;;13.18;57.90
33151;BME280;19508;42.578;23.416;2022-12-08T12:41:50;93404.44;;;12.93;58.40
33151;BME280;19508;42.578;23.416;2022-12-08T12:54:44;93398.72;;;12.30;60.66
33151;BME280;19508;42.578;23.416;2022-12-08T12:57:49;93406.28;;;12.28;61.17
33151;BME280;19508;42.578;23.416;2022-12-08T13:00:18;93395.44;;;12.43;60.61
33151;BME280;19508;42.578;23.416;2022-12-08T13:02:45;93393.75;;;12.67;60.02
33151;BME280;19508;42.578;23.416;2022-12-08T13:10:19;93391.75;;;12.93;59.10
33151;BME280;19508;42.578;23.416;2022-12-08T13:13:18;93394.94;;;12.41;60.62
33151;BME280;19508;42.578;23.416;2022-12-08T13:16:04;93382.94;;;12.67;60.27
33151;BME280;19508;42.578;23.416;2022-12-08T13:18:46;93393.22;;;12.60;59.90
33151;BME280;19508;42.578;23.416;2022-12-08T13:21:13;93390.94;;;12.93;58.66
33151;BME280;19508;42.578;23.416;2022-12-08T13:31:44;93388.75;;;13.00;58.55
33151;BME280;19508;42.578;23.416;2022-12-08T13:37:01;93390.56;;;13.10;58.41
33151;BME280;19508;42.578;23.416;2022-12-08T13:44:42;93383.34;;;12.95;58.11
33151;BME280;19508;42.578;23.416;2022-12-08T13:47:12;93380.66;;;12.90;58.68
33151;BME280;19508;42.578;23.416;2022-12-08T13:49:43;93378.31;;;12.78;59.33
33151;BME280;19508;42.578;23.416;2022-12-08T13:52:20;93384.72;;;12.92;58.56
33151;BME280;19508;42.578;23.416;2022-12-08T13:54:51;93377.72;;;12.81;58.94
33151;BME280;19508;42.578;23.416;2022-12-08T13:57:25;93384.13;;;12.36;60.68
33151;BME280;19508;42.578;23.416;2022-12-08T13:59:51;93388.47;;;12.27;61.71
33151;BME280;19508;42.578;23.416;2022-12-08T14:02:25;93388.75;;;12.25;61.28
33151;BME280;19508;42.578;23.416;2022-12-08T14:04:51;93382.59;;;11.99;62.23
33151;BME280;19508;42.578;23.416;2022-12-08T14:07:17;93385.03;;;11.96;63.02
33151;BME280;19508;42.578;23.416;2022-12-08T14:09:44;93393.38;;;12.14;62.12
33151;BME280;19508;42.578;23.416;2022-12-08T14:12:22;93376.13;;;11.95;62.91
33151;BME280;19508;42.578;23.416;2022-12-08T14:14:51;93390.66;;;12.04;62.70
33151;BME280;19508;42.578;23.416;2022-12-08T14:17:19;93392.56;;;12.04;62.86
33151;BME280;19508;42.578;23.416;2022-12-08T14:22:22;93387.75;;;11.85;63.59
33151;BME280;19508;42.578;23.416;2022-12-08T14:24:50;93402.56;;;11.93;63.71
33151;BME280;19508;42.578;23.416;2022-12-08T14:27:22;93379.88;;;11.79;64.37
33151;BME280;19508;42.578;23.416;2022-12-08T14:29:56;93386.66;;;11.71;64.38
33151;BME280;19508;42.578;23.416;2022-12-08T14:33:01;93390.41;;;11.60;65.25
33151;BME280;19508;42.578;23.416;2022-12-08T14:35:37;93388.53;;;11.55;65.34
33151;BME280;19508;42.578;23.416;2022-12-08T14:38:05;93380.72;;;11.34;66.09
33151;BME280;19508;42.578;23.416;2022-12-08T14:40:38;93388.44;;;10.84;67.50
33151;BME280;19508;42.578;23.416;2022-12-08T14:53:34;93394.34;;;10.71;68.38
33151;BME280;19508;42.578;23.416;2022-12-08T14:58:35;93388.63;;;10.52;68.80
33151;BME280;19508;42.578;23.416;2022-12-08T15:01:01;93378.34;;;10.44;69.30
33151;BME280;19508;42.578;23.416;2022-12-08T15:03:29;93385.84;;;10.42;69.57
33151;BME280;19508;42.578;23.416;2022-12-08T15:06:02;93380.22;;;10.49;69.63